Amis Glory — 3FSN5 — position and weather

sailwx.info

Track history (hours):
 
Tides and Currents Weather Stations Pressure Air Temp Water Temp Dewpoint Dewpoint Depression Visibility Wind Speed Wind Dir Waves Ship Positions

Amis Glory

Last reported at 2018-Jul-21 17:30 UTC. Time now 2018-Jul-21 17:26 UTC.
Position N 29°38' W 121°03'.

Length 189 m; draft 12.7 m.

Type: Cargo ship. MMSI: 374710000.

Date/timePositionNaut miles runAvg speedWind from/ knotsBaromVisibWave heightAir tempDewpointWater temp
2018-Jul-21 17:30N 29°38' W 121°03'711.8
2018-Jul-21 16:56N 29°42' W 121°09'2712.5
2018-Jul-21 14:48N 29°60' W 121°32'311.4
2018-Jul-21 14:30N 30°02' W 121°35'5211.5
2018-Jul-21 09:57N 30°37' W 122°20'1211.8
2018-Jul-21 08:54N 30°45' W 122°30'511.9
2018-Jul-21 08:29N 30°49' W 122°35'612.0
2018-Jul-21 07:58N 30°53' W 122°40'3211.8
2018-Jul-21 05:18N 31°14' W 123°07'411.5
2018-Jul-21 04:58N 31°16' W 123°11'611.5
2018-Jul-21 04:29N 31°20' W 123°16'611.6
2018-Jul-21 03:58N 31°24' W 123°21'711.5
2018-Jul-21 03:23N 31°28' W 123°27'611.5
2018-Jul-21 02:51N 31°33' W 123°32'511.1
2018-Jul-21 02:21N 31°36' W 123°37'411.2
2018-Jul-21 01:59N 31°39' W 123°40'10811.2
2018-Jul-20 16:23N 32°48' W 125°18'411.2
2018-Jul-20 16:00N 32°51' W 125°21'8411.2
2018-Jul-20 08:27N 34°08' W 126°05'711.2
2018-Jul-20 07:48N 34°14' W 126°08'511.4
2018-Jul-20 07:23N 34°19' W 126°11'411.6
2018-Jul-20 07:00N 34°23' W 126°13'611.6
2018-Jul-20 06:30N 34°28' W 126°16'611.1
2018-Jul-20 05:58N 34°33' W 126°19'511.2
2018-Jul-20 05:30N 34°38' W 126°21'611.4
2018-Jul-20 05:00N 34°43' W 126°24'611.2
2018-Jul-20 04:30N 34°49' W 126°27'810.9
2018-Jul-20 03:45N 34°56' W 126°31'310.7
2018-Jul-20 03:30N 34°58' W 126°32'510.9
2018-Jul-20 03:00N 35°03' W 126°35'611.1
2018-Jul-20 02:30N 35°08' W 126°38'611.6
2018-Jul-20 02:00N 35°14' W 126°41'611.3
2018-Jul-20 01:30N 35°19' W 126°44'611.0
2018-Jul-20 01:00N 35°24' W 126°47'510.9
2018-Jul-20 00:30N 35°29' W 126°49'510.9
2018-Jul-20 00:00N 35°34' W 126°51'510.9
2018-Jul-19 23:30N 35°39' W 126°53'611.2
2018-Jul-19 23:00N 35°44' W 126°55'611.3
2018-Jul-19 22:30N 35°50' W 126°57'511.2
2018-Jul-19 22:00N 35°55' W 126°59'10310.8
2018-Jul-19 12:25N 37°29' W 127°51'510.8
2018-Jul-19 11:59N 37°34' W 127°54'5110.8
2018-Jul-19 07:16N 38°18' W 128°26'511.7
2018-Jul-19 06:51N 38°22' W 128°29'52011.1
2018-Jul-17 07:49N 47°03' W 128°07'411.2
2018-Jul-17 07:30N 47°05' W 128°03'611.2
2018-Jul-17 06:59N 47°08' W 127°56'511.2
2018-Jul-17 06:30N 47°11' W 127°50'611.2
2018-Jul-17 06:00N 47°15' W 127°43'611.1
2018-Jul-17 05:26N 47°18' W 127°36'2311.2
2018-Jul-17 03:23N 47°32' W 127°08'5011.4
2018-Jul-16 23:00N 48°01' W 126°08'611.1
2018-Jul-16 22:29N 48°05' W 126°01'511.2
2018-Jul-16 22:00N 48°08' W 125°55'611.2
2018-Jul-16 21:30N 48°11' W 125°48'510.9
2018-Jul-16 21:00N 48°15' W 125°42'610.8
2018-Jul-16 20:30N 48°18' W 125°35'611.0
2018-Jul-16 19:55N 48°22' W 125°27'411.0
2018-Jul-16 19:30N 48°25' W 125°22'611.7
2018-Jul-16 19:00N 48°28' W 125°15'611.8
2018-Jul-16 18:29N 48°30' W 125°07'713.0
2018-Jul-16 17:59N 48°31' W 124°57'613.2
2018-Jul-16 17:30N 48°31' W 124°47'713.1
2018-Jul-16 17:00N 48°29' W 124°37'713.5
2018-Jul-16 16:30N 48°27' W 124°28'713.5
2018-Jul-16 16:00N 48°24' W 124°19'713.1
2018-Jul-16 15:30N 48°22' W 124°10'713.0
2018-Jul-16 15:00N 48°19' W 124°00'612.5
2018-Jul-16 14:30N 48°17' W 123°51'612.3
2018-Jul-16 13:59N 48°16' W 123°42'810.3
2018-Jul-16 13:12N 48°16' W 123°30'210.3
2018-Jul-16 12:59N 48°18' W 123°28'510.7
2018-Jul-16 12:30N 48°22' W 123°24'4 7.9
2018-Jul-16 12:00N 48°23' W 123°18'510.7
2018-Jul-16 11:30N 48°26' W 123°12'714.1
2018-Jul-16 11:00N 48°33' W 123°13'713.5
2018-Jul-16 10:31N 48°40' W 123°15'612.2
2018-Jul-16 10:00N 48°44' W 123°09'612.5
2018-Jul-16 09:29N 48°48' W 123°01'713.5
2018-Jul-16 08:59N 48°53' W 123°07'713.9
2018-Jul-16 08:30N 48°58' W 123°15'713.9
2018-Jul-16 08:00N 49°02' W 123°22'713.4
2018-Jul-16 07:30N 49°09' W 123°23'812.8
2018-Jul-16 06:53N 49°17' W 123°20'512.1
2018-Jul-16 06:29N 49°19' W 123°13'510.1
2018-Jul-16 06:00N 49°18' W 123°06'2 3.2
2018-Jul-16 05:30N 49°18' W 123°04'0 0.0
2018-Jul-16 04:59N 49°18' W 123°04'0 0.0
2018-Jul-16 04:29N 49°18' W 123°04'0 0.0
2018-Jul-16 03:59N 49°18' W 123°04'0 0.0
2018-Jul-16 03:29N 49°18' W 123°04'0 0.0
2018-Jul-16 02:59N 49°18' W 123°04'0 0.0
2018-Jul-16 02:26N 49°18' W 123°04'0 0.0
2018-Jul-16 01:56N 49°18' W 123°04'0 0.0
2018-Jul-16 01:26N 49°18' W 123°04'0 0.0
2018-Jul-16 00:53N 49°18' W 123°04'0 0.0
2018-Jul-16 00:29N 49°18' W 123°04'0 0.0
2018-Jul-15 23:56N 49°18' W 123°04'0 0.0
2018-Jul-15 23:26N 49°18' W 123°04'0 0.0
2018-Jul-15 22:56N 49°18' W 123°04'0 0.0
2018-Jul-15 22:26N 49°18' W 123°04'0 0.0
2018-Jul-15 21:59N 49°18' W 123°04'0 0.0
2018-Jul-15 21:20N 49°18' W 123°04'0 0.0
2018-Jul-15 20:41N 49°18' W 123°04'0 0.0
2018-Jul-15 20:23N 49°18' W 123°04'0 0.0
2018-Jul-15 19:38N 49°18' W 123°04'0 0.0
2018-Jul-15 19:17N 49°18' W 123°04'0 0.0
2018-Jul-15 18:53N 49°18' W 123°04'0 0.0
2018-Jul-15 18:26N 49°18' W 123°04'0 0.0
2018-Jul-15 17:59N 49°18' W 123°04'0 0.0
2018-Jul-15 17:29N 49°18' W 123°04'0 0.0
2018-Jul-15 16:59N 49°18' W 123°04'0 0.0
2018-Jul-15 16:29N 49°18' W 123°04'0 0.0
2018-Jul-15 15:56N 49°18' W 123°04'0 0.0
2018-Jul-15 15:29N 49°18' W 123°04'0 0.0
2018-Jul-15 14:59N 49°18' W 123°04'0 0.0
2018-Jul-15 14:20N 49°18' W 123°04'0 0.0
2018-Jul-15 13:59N 49°18' W 123°04'0 0.0
2018-Jul-15 13:29N 49°18' W 123°04'0 0.0
2018-Jul-15 12:59N 49°18' W 123°04'0 0.0
2018-Jul-15 12:29N 49°18' W 123°04'0 0.0
2018-Jul-15 11:56N 49°18' W 123°04'0 0.0
2018-Jul-15 11:26N 49°18' W 123°04'0 0.0
2018-Jul-15 10:59N 49°18' W 123°04'0 0.0
2018-Jul-15 10:29N 49°18' W 123°04'0 0.0
2018-Jul-15 09:59N 49°18' W 123°04'0 0.0
2018-Jul-15 09:29N 49°18' W 123°04'0 0.0
2018-Jul-15 08:59N 49°18' W 123°04'0 0.0
2018-Jul-15 08:29N 49°18' W 123°04'0 0.0
2018-Jul-15 07:59N 49°18' W 123°04'0 0.0
2018-Jul-15 07:29N 49°18' W 123°04'0 0.0
2018-Jul-15 06:59N 49°18' W 123°04'0 0.0
2018-Jul-15 06:29N 49°18' W 123°04'0 0.0
2018-Jul-15 05:59N 49°18' W 123°04'0 0.0
2018-Jul-15 05:23N 49°18' W 123°04'0 0.0
2018-Jul-15 04:59N 49°18' W 123°04'0 0.0
2018-Jul-15 04:26N 49°18' W 123°04'0 0.0
2018-Jul-15 03:59N 49°18' W 123°04'0 0.0
2018-Jul-15 03:29N 49°18' W 123°04'0 0.0
2018-Jul-15 02:59N 49°18' W 123°04'0 0.0
2018-Jul-15 02:29N 49°18' W 123°04'0 0.0
2018-Jul-15 01:59N 49°18' W 123°04'0 0.0
2018-Jul-15 01:26N 49°18' W 123°04'0 0.0
2018-Jul-15 00:56N 49°18' W 123°04'0 0.0
2018-Jul-15 00:26N 49°18' W 123°04'0 0.0
2018-Jul-14 23:59N 49°18' W 123°04'0 0.0
2018-Jul-14 23:29N 49°18' W 123°04'0 0.0
2018-Jul-14 22:59N 49°18' W 123°04'0 0.0
2018-Jul-14 22:23N 49°18' W 123°04'0 0.0
2018-Jul-14 21:59N 49°18' W 123°04'0 0.0
2018-Jul-14 21:29N 49°18' W 123°04'0 0.0
2018-Jul-14 20:59N 49°18' W 123°04'0 0.0
2018-Jul-14 20:29N 49°18' W 123°04'0 0.0
2018-Jul-14 19:59N 49°18' W 123°04'0 0.0
2018-Jul-14 19:29N 49°18' W 123°04'0 0.0
2018-Jul-14 18:59N 49°18' W 123°04'0 0.0
2018-Jul-14 18:29N 49°18' W 123°04'0 0.0
2018-Jul-14 17:59N 49°18' W 123°04'0 0.0
2018-Jul-14 17:26N 49°18' W 123°04'0 0.0
2018-Jul-14 16:59N 49°18' W 123°04'0 0.0
2018-Jul-14 16:29N 49°18' W 123°04'0 0.0
2018-Jul-14 15:59N 49°18' W 123°04'0 0.0
2018-Jul-14 15:29N 49°18' W 123°04'0 0.0
2018-Jul-14 14:59N 49°18' W 123°04'0 0.0
2018-Jul-14 14:29N 49°18' W 123°04'0 0.0
2018-Jul-14 13:26N 49°18' W 123°04'0 0.0
2018-Jul-14 12:56N 49°18' W 123°04'0 0.0
2018-Jul-14 12:29N 49°18' W 123°04'0 0.0
2018-Jul-14 11:59N 49°18' W 123°04'0 0.0
2018-Jul-14 11:29N 49°18' W 123°04'0 0.0
2018-Jul-14 10:56N 49°18' W 123°04'0 0.0
2018-Jul-14 10:26N 49°18' W 123°04'0 0.0
2018-Jul-14 09:56N 49°18' W 123°04'0 0.0
2018-Jul-14 09:26N 49°18' W 123°04'0 0.0
2018-Jul-14 08:56N 49°18' W 123°04'0 0.0
2018-Jul-14 08:29N 49°18' W 123°04'0 0.0
2018-Jul-14 07:59N 49°18' W 123°04'0 0.0
2018-Jul-14 07:29N 49°18' W 123°04'0 0.0
2018-Jul-14 06:59N 49°18' W 123°04'0 0.0
2018-Jul-14 06:29N 49°18' W 123°04'0 0.0
2018-Jul-14 05:59N 49°18' W 123°04'0 0.0
2018-Jul-14 05:29N 49°18' W 123°04'0 0.0
2018-Jul-14 04:59N 49°18' W 123°04'0 0.0
2018-Jul-14 04:29N 49°18' W 123°04'0 0.0
2018-Jul-14 03:59N 49°18' W 123°04'0 0.0
2018-Jul-14 03:23N 49°18' W 123°04'0 0.0
2018-Jul-14 02:59N 49°18' W 123°04'0 0.0
2018-Jul-14 02:29N 49°18' W 123°04'0 0.0
2018-Jul-14 01:59N 49°18' W 123°04'0 0.0
2018-Jul-14 01:29N 49°18' W 123°04'0 0.0
2018-Jul-14 00:59N 49°18' W 123°04'0 0.0
2018-Jul-14 00:26N 49°18' W 123°04'0 0.0
2018-Jul-13 23:56N 49°18' W 123°04'0 0.0
2018-Jul-13 23:29N 49°18' W 123°04'0 0.0
2018-Jul-13 22:59N 49°18' W 123°04'0 0.0
2018-Jul-13 22:28N 49°18' W 123°04'0 0.0
2018-Jul-13 21:58N 49°18' W 123°04'0 0.0
2018-Jul-13 21:29N 49°18' W 123°04'0 0.0
2018-Jul-13 20:59N 49°18' W 123°04'0 0.0
2018-Jul-13 20:29N 49°18' W 123°04'0 0.0
2018-Jul-13 19:58N 49°18' W 123°04'0 0.0
2018-Jul-13 19:29N 49°18' W 123°04'0 0.0
2018-Jul-13 18:59N 49°18' W 123°04'0 0.0
2018-Jul-13 18:29N 49°18' W 123°04'0 0.0
2018-Jul-13 17:58N 49°18' W 123°04'0 0.0
2018-Jul-13 17:29N 49°18' W 123°04'0 0.0
2018-Jul-13 16:59N 49°18' W 123°04'0 0.0
2018-Jul-13 16:29N 49°18' W 123°04'0 0.0
2018-Jul-13 15:59N 49°18' W 123°04'0 0.0
2018-Jul-13 15:25N 49°18' W 123°04'0 0.0
2018-Jul-13 14:59N 49°18' W 123°04'0 0.0
2018-Jul-13 14:29N 49°18' W 123°04'0 0.0
2018-Jul-13 13:29N 49°18' W 123°04'0 0.0
2018-Jul-13 12:59N 49°18' W 123°04'0 0.0
2018-Jul-13 12:28N 49°18' W 123°04'0 0.0
2018-Jul-13 11:59N 49°18' W 123°04'0 0.0
2018-Jul-13 11:29N 49°18' W 123°04'0 0.0
2018-Jul-13 10:59N 49°18' W 123°04'0 0.0
2018-Jul-13 10:28N 49°18' W 123°04'0 0.0
2018-Jul-13 09:55N 49°18' W 123°04'0 0.0
2018-Jul-13 09:28N 49°18' W 123°04'0 0.0
2018-Jul-13 08:58N 49°18' W 123°04'0 0.0
2018-Jul-13 08:28N 49°18' W 123°04'0 0.0
2018-Jul-13 07:59N 49°18' W 123°04'0 0.0
2018-Jul-13 07:28N 49°18' W 123°04'0 0.0
2018-Jul-13 06:59N 49°18' W 123°04'0 0.0
2018-Jul-13 06:29N 49°18' W 123°04'0 0.0
2018-Jul-13 05:59N 49°18' W 123°04'0 0.0
2018-Jul-13 05:28N 49°18' W 123°04'0 0.0
2018-Jul-13 04:58N 49°18' W 123°04'0 0.0
2018-Jul-13 04:28N 49°18' W 123°04'0 0.0
2018-Jul-13 03:58N 49°18' W 123°04'0 0.0
2018-Jul-13 03:25N 49°18' W 123°04'0 0.0
2018-Jul-13 02:58N 49°18' W 123°04'0 0.0
2018-Jul-13 02:28N 49°18' W 123°04'0 0.0
2018-Jul-13 01:58N 49°18' W 123°04'0 0.0
2018-Jul-13 01:28N 49°18' W 123°04'0 0.0
2018-Jul-13 00:59N 49°18' W 123°04'0 0.0
2018-Jul-13 00:26N 49°18' W 123°04'0 0.0
2018-Jul-12 23:58N 49°18' W 123°04'0 0.0
2018-Jul-12 23:25N 49°18' W 123°04'0 0.0
2018-Jul-12 22:58N 49°18' W 123°04'0 0.0
2018-Jul-12 22:28N 49°18' W 123°04'0 0.0
2018-Jul-12 21:58N 49°18' W 123°04'0 0.0
2018-Jul-12 21:28N 49°18' W 123°04'0 0.0
2018-Jul-12 20:58N 49°18' W 123°04'0 0.0
2018-Jul-12 20:28N 49°18' W 123°04'0 0.0
2018-Jul-12 19:58N 49°18' W 123°04'0 0.0
2018-Jul-12 19:28N 49°18' W 123°04'0 0.0
2018-Jul-12 18:58N 49°18' W 123°04'0 0.0
2018-Jul-12 18:28N 49°18' W 123°04'0 0.0
2018-Jul-12 17:58N 49°18' W 123°04'0 0.0
2018-Jul-12 17:28N 49°18' W 123°04'0 0.0
2018-Jul-12 16:58N 49°18' W 123°04'0 0.0
2018-Jul-12 16:13N 49°18' W 123°04'0 0.0
2018-Jul-12 15:55N 49°18' W 123°04'0 0.0
2018-Jul-12 15:28N 49°18' W 123°04'0 0.0
2018-Jul-12 14:58N 49°18' W 123°04'0 0.0
2018-Jul-12 14:28N 49°18' W 123°04'0 0.0
2018-Jul-12 13:58N 49°18' W 123°04'0 0.0
2018-Jul-12 13:28N 49°18' W 123°04'0 0.0
2018-Jul-12 12:55N 49°18' W 123°04'0 0.0
2018-Jul-12 12:28N 49°18' W 123°04'0 0.0
2018-Jul-12 11:58N 49°18' W 123°04'0 0.0
2018-Jul-12 11:28N 49°18' W 123°04'0 0.0
2018-Jul-12 10:58N 49°18' W 123°04'0 0.0
2018-Jul-12 10:28N 49°18' W 123°04'0 0.0
2018-Jul-12 09:58N 49°18' W 123°04'0 0.0
2018-Jul-12 09:28N 49°18' W 123°04'0 0.0
2018-Jul-12 08:58N 49°18' W 123°04'0 0.0
2018-Jul-12 08:28N 49°18' W 123°04'0 0.0
2018-Jul-12 07:58N 49°18' W 123°04'0 0.0
2018-Jul-12 07:28N 49°18' W 123°04'0 0.0
2018-Jul-12 06:58N 49°18' W 123°04'0 0.0
2018-Jul-12 06:28N 49°18' W 123°04'0 0.0
2018-Jul-12 05:58N 49°18' W 123°04'0 0.0
2018-Jul-12 05:28N 49°18' W 123°04'0 0.0
2018-Jul-12 04:58N 49°18' W 123°04'0 0.0
2018-Jul-12 04:28N 49°18' W 123°04'0 0.0
2018-Jul-12 03:58N 49°18' W 123°04'0 0.0
2018-Jul-12 03:28N 49°18' W 123°04'0 0.0
2018-Jul-12 02:58N 49°18' W 123°04'0 0.0
2018-Jul-12 02:28N 49°18' W 123°04'0 0.0
2018-Jul-12 01:58N 49°18' W 123°04'0 0.0
2018-Jul-12 01:28N 49°18' W 123°04'0 0.0
2018-Jul-12 00:58N 49°18' W 123°04'0 0.0
2018-Jul-12 00:28N 49°18' W 123°04'0 0.0
2018-Jul-11 23:58N 49°18' W 123°04'0 0.0
2018-Jul-11 23:28N 49°18' W 123°04'0 0.0
2018-Jul-11 22:58N 49°18' W 123°04'0 0.0
2018-Jul-11 22:28N 49°18' W 123°04'0 0.0
2018-Jul-11 21:58N 49°18' W 123°04'0 0.0
2018-Jul-11 21:28N 49°18' W 123°04'0 0.0
2018-Jul-11 20:58N 49°18' W 123°04'0 0.0
2018-Jul-11 20:28N 49°18' W 123°04'0 0.0
2018-Jul-11 19:58N 49°18' W 123°04'0 0.0
2018-Jul-11 19:28N 49°18' W 123°04'0 0.0
2018-Jul-11 18:58N 49°18' W 123°04'0 0.0
2018-Jul-11 18:28N 49°18' W 123°04'0 0.0
2018-Jul-11 17:58N 49°18' W 123°04'0 0.0
2018-Jul-11 17:28N 49°18' W 123°04'0 0.0
2018-Jul-11 16:58N 49°18' W 123°04'  
Track history (hours):
 
Tides and Currents Weather Stations Pressure Air Temp Water Temp Dewpoint Dewpoint Depression Visibility Wind Speed Wind Dir Waves Ship Positions

Amis Glory

Last reported at 2018-Jul-21 17:30 UTC. Time now 2018-Jul-21 17:26 UTC.
Position N 29°38' W 121°03'.

Length 189 m; draft 12.7 m.

Type: Cargo ship. MMSI: 374710000.

Date/timePositionNaut miles runAvg speedWind from/ knotsBaromVisibWave heightAir tempDewpointWater temp
2018-Jul-21 17:30N 29°38' W 121°03'711.8
2018-Jul-21 16:56N 29°42' W 121°09'2712.5
2018-Jul-21 14:48N 29°60' W 121°32'311.4
2018-Jul-21 14:30N 30°02' W 121°35'5211.5
2018-Jul-21 09:57N 30°37' W 122°20'1211.8
2018-Jul-21 08:54N 30°45' W 122°30'511.9
2018-Jul-21 08:29N 30°49' W 122°35'612.0
2018-Jul-21 07:58N 30°53' W 122°40'3211.8
2018-Jul-21 05:18N 31°14' W 123°07'411.5
2018-Jul-21 04:58N 31°16' W 123°11'611.5
2018-Jul-21 04:29N 31°20' W 123°16'611.6
2018-Jul-21 03:58N 31°24' W 123°21'711.5
2018-Jul-21 03:23N 31°28' W 123°27'611.5
2018-Jul-21 02:51N 31°33' W 123°32'511.1
2018-Jul-21 02:21N 31°36' W 123°37'411.2
2018-Jul-21 01:59N 31°39' W 123°40'10811.2
2018-Jul-20 16:23N 32°48' W 125°18'411.2
2018-Jul-20 16:00N 32°51' W 125°21'8411.2
2018-Jul-20 08:27N 34°08' W 126°05'711.2
2018-Jul-20 07:48N 34°14' W 126°08'511.4
2018-Jul-20 07:23N 34°19' W 126°11'411.6
2018-Jul-20 07:00N 34°23' W 126°13'611.6
2018-Jul-20 06:30N 34°28' W 126°16'611.1
2018-Jul-20 05:58N 34°33' W 126°19'511.2
2018-Jul-20 05:30N 34°38' W 126°21'611.4
2018-Jul-20 05:00N 34°43' W 126°24'611.2
2018-Jul-20 04:30N 34°49' W 126°27'810.9
2018-Jul-20 03:45N 34°56' W 126°31'310.7
2018-Jul-20 03:30N 34°58' W 126°32'510.9
2018-Jul-20 03:00N 35°03' W 126°35'611.1
2018-Jul-20 02:30N 35°08' W 126°38'611.6
2018-Jul-20 02:00N 35°14' W 126°41'611.3
2018-Jul-20 01:30N 35°19' W 126°44'611.0
2018-Jul-20 01:00N 35°24' W 126°47'510.9
2018-Jul-20 00:30N 35°29' W 126°49'510.9
2018-Jul-20 00:00N 35°34' W 126°51'510.9
2018-Jul-19 23:30N 35°39' W 126°53'611.2
2018-Jul-19 23:00N 35°44' W 126°55'611.3
2018-Jul-19 22:30N 35°50' W 126°57'511.2
2018-Jul-19 22:00N 35°55' W 126°59'10310.8
2018-Jul-19 12:25N 37°29' W 127°51'510.8
2018-Jul-19 11:59N 37°34' W 127°54'5110.8
2018-Jul-19 07:16N 38°18' W 128°26'511.7
2018-Jul-19 06:51N 38°22' W 128°29'52011.1
2018-Jul-17 07:49N 47°03' W 128°07'411.2
2018-Jul-17 07:30N 47°05' W 128°03'611.2
2018-Jul-17 06:59N 47°08' W 127°56'511.2
2018-Jul-17 06:30N 47°11' W 127°50'611.2
2018-Jul-17 06:00N 47°15' W 127°43'611.1
2018-Jul-17 05:26N 47°18' W 127°36'2311.2
2018-Jul-17 03:23N 47°32' W 127°08'5011.4
2018-Jul-16 23:00N 48°01' W 126°08'611.1
2018-Jul-16 22:29N 48°05' W 126°01'511.2
2018-Jul-16 22:00N 48°08' W 125°55'611.2
2018-Jul-16 21:30N 48°11' W 125°48'510.9
2018-Jul-16 21:00N 48°15' W 125°42'610.8
2018-Jul-16 20:30N 48°18' W 125°35'611.0
2018-Jul-16 19:55N 48°22' W 125°27'411.0
2018-Jul-16 19:30N 48°25' W 125°22'611.7
2018-Jul-16 19:00N 48°28' W 125°15'611.8
2018-Jul-16 18:29N 48°30' W 125°07'713.0
2018-Jul-16 17:59N 48°31' W 124°57'613.2
2018-Jul-16 17:30N 48°31' W 124°47'713.1
2018-Jul-16 17:00N 48°29' W 124°37'713.5
2018-Jul-16 16:30N 48°27' W 124°28'713.5
2018-Jul-16 16:00N 48°24' W 124°19'713.1
2018-Jul-16 15:30N 48°22' W 124°10'713.0
2018-Jul-16 15:00N 48°19' W 124°00'612.5
2018-Jul-16 14:30N 48°17' W 123°51'612.3
2018-Jul-16 13:59N 48°16' W 123°42'810.3
2018-Jul-16 13:12N 48°16' W 123°30'210.3
2018-Jul-16 12:59N 48°18' W 123°28'510.7
2018-Jul-16 12:30N 48°22' W 123°24'4 7.9
2018-Jul-16 12:00N 48°23' W 123°18'510.7
2018-Jul-16 11:30N 48°26' W 123°12'714.1
2018-Jul-16 11:00N 48°33' W 123°13'713.5
2018-Jul-16 10:31N 48°40' W 123°15'612.2
2018-Jul-16 10:00N 48°44' W 123°09'612.5
2018-Jul-16 09:29N 48°48' W 123°01'713.5
2018-Jul-16 08:59N 48°53' W 123°07'713.9
2018-Jul-16 08:30N 48°58' W 123°15'713.9
2018-Jul-16 08:00N 49°02' W 123°22'713.4
2018-Jul-16 07:30N 49°09' W 123°23'812.8
2018-Jul-16 06:53N 49°17' W 123°20'512.1
2018-Jul-16 06:29N 49°19' W 123°13'510.1
2018-Jul-16 06:00N 49°18' W 123°06'2 3.2
2018-Jul-16 05:30N 49°18' W 123°04'0 0.0
2018-Jul-16 04:59N 49°18' W 123°04'0 0.0
2018-Jul-16 04:29N 49°18' W 123°04'0 0.0
2018-Jul-16 03:59N 49°18' W 123°04'0 0.0
2018-Jul-16 03:29N 49°18' W 123°04'0 0.0
2018-Jul-16 02:59N 49°18' W 123°04'0 0.0
2018-Jul-16 02:26N 49°18' W 123°04'0 0.0
2018-Jul-16 01:56N 49°18' W 123°04'0 0.0
2018-Jul-16 01:26N 49°18' W 123°04'0 0.0
2018-Jul-16 00:53N 49°18' W 123°04'0 0.0
2018-Jul-16 00:29N 49°18' W 123°04'0 0.0
2018-Jul-15 23:56N 49°18' W 123°04'0 0.0
2018-Jul-15 23:26N 49°18' W 123°04'0 0.0
2018-Jul-15 22:56N 49°18' W 123°04'0 0.0
2018-Jul-15 22:26N 49°18' W 123°04'0 0.0
2018-Jul-15 21:59N 49°18' W 123°04'0 0.0
2018-Jul-15 21:20N 49°18' W 123°04'0 0.0
2018-Jul-15 20:41N 49°18' W 123°04'0 0.0
2018-Jul-15 20:23N 49°18' W 123°04'0 0.0
2018-Jul-15 19:38N 49°18' W 123°04'0 0.0
2018-Jul-15 19:17N 49°18' W 123°04'0 0.0
2018-Jul-15 18:53N 49°18' W 123°04'0 0.0
2018-Jul-15 18:26N 49°18' W 123°04'0 0.0
2018-Jul-15 17:59N 49°18' W 123°04'0 0.0
2018-Jul-15 17:29N 49°18' W 123°04'0 0.0
2018-Jul-15 16:59N 49°18' W 123°04'0 0.0
2018-Jul-15 16:29N 49°18' W 123°04'0 0.0
2018-Jul-15 15:56N 49°18' W 123°04'0 0.0
2018-Jul-15 15:29N 49°18' W 123°04'0 0.0
2018-Jul-15 14:59N 49°18' W 123°04'0 0.0
2018-Jul-15 14:20N 49°18' W 123°04'0 0.0
2018-Jul-15 13:59N 49°18' W 123°04'0 0.0
2018-Jul-15 13:29N 49°18' W 123°04'0 0.0
2018-Jul-15 12:59N 49°18' W 123°04'0 0.0
2018-Jul-15 12:29N 49°18' W 123°04'0 0.0
2018-Jul-15 11:56N 49°18' W 123°04'0 0.0
2018-Jul-15 11:26N 49°18' W 123°04'0 0.0
2018-Jul-15 10:59N 49°18' W 123°04'0 0.0
2018-Jul-15 10:29N 49°18' W 123°04'0 0.0
2018-Jul-15 09:59N 49°18' W 123°04'0 0.0
2018-Jul-15 09:29N 49°18' W 123°04'0 0.0
2018-Jul-15 08:59N 49°18' W 123°04'0 0.0
2018-Jul-15 08:29N 49°18' W 123°04'0 0.0
2018-Jul-15 07:59N 49°18' W 123°04'0 0.0
2018-Jul-15 07:29N 49°18' W 123°04'0 0.0
2018-Jul-15 06:59N 49°18' W 123°04'0 0.0
2018-Jul-15 06:29N 49°18' W 123°04'0 0.0
2018-Jul-15 05:59N 49°18' W 123°04'0 0.0
2018-Jul-15 05:23N 49°18' W 123°04'0 0.0
2018-Jul-15 04:59N 49°18' W 123°04'0 0.0
2018-Jul-15 04:26N 49°18' W 123°04'0 0.0
2018-Jul-15 03:59N 49°18' W 123°04'0 0.0
2018-Jul-15 03:29N 49°18' W 123°04'0 0.0
2018-Jul-15 02:59N 49°18' W 123°04'0 0.0
2018-Jul-15 02:29N 49°18' W 123°04'0 0.0
2018-Jul-15 01:59N 49°18' W 123°04'0 0.0
2018-Jul-15 01:26N 49°18' W 123°04'0 0.0
2018-Jul-15 00:56N 49°18' W 123°04'0 0.0
2018-Jul-15 00:26N 49°18' W 123°04'0 0.0
2018-Jul-14 23:59N 49°18' W 123°04'0 0.0
2018-Jul-14 23:29N 49°18' W 123°04'0 0.0
2018-Jul-14 22:59N 49°18' W 123°04'0 0.0
2018-Jul-14 22:23N 49°18' W 123°04'0 0.0
2018-Jul-14 21:59N 49°18' W 123°04'0 0.0
2018-Jul-14 21:29N 49°18' W 123°04'0 0.0
2018-Jul-14 20:59N 49°18' W 123°04'0 0.0
2018-Jul-14 20:29N 49°18' W 123°04'0 0.0
2018-Jul-14 19:59N 49°18' W 123°04'0 0.0
2018-Jul-14 19:29N 49°18' W 123°04'0 0.0
2018-Jul-14 18:59N 49°18' W 123°04'0 0.0
2018-Jul-14 18:29N 49°18' W 123°04'0 0.0
2018-Jul-14 17:59N 49°18' W 123°04'0 0.0
2018-Jul-14 17:26N 49°18' W 123°04'0 0.0
2018-Jul-14 16:59N 49°18' W 123°04'0 0.0
2018-Jul-14 16:29N 49°18' W 123°04'0 0.0
2018-Jul-14 15:59N 49°18' W 123°04'0 0.0
2018-Jul-14 15:29N 49°18' W 123°04'0 0.0
2018-Jul-14 14:59N 49°18' W 123°04'0 0.0
2018-Jul-14 14:29N 49°18' W 123°04'0 0.0
2018-Jul-14 13:26N 49°18' W 123°04'0 0.0
2018-Jul-14 12:56N 49°18' W 123°04'0 0.0
2018-Jul-14 12:29N 49°18' W 123°04'0 0.0
2018-Jul-14 11:59N 49°18' W 123°04'0 0.0
2018-Jul-14 11:29N 49°18' W 123°04'0 0.0
2018-Jul-14 10:56N 49°18' W 123°04'0 0.0
2018-Jul-14 10:26N 49°18' W 123°04'0 0.0
2018-Jul-14 09:56N 49°18' W 123°04'0 0.0
2018-Jul-14 09:26N 49°18' W 123°04'0 0.0
2018-Jul-14 08:56N 49°18' W 123°04'0 0.0
2018-Jul-14 08:29N 49°18' W 123°04'0 0.0
2018-Jul-14 07:59N 49°18' W 123°04'0 0.0
2018-Jul-14 07:29N 49°18' W 123°04'0 0.0
2018-Jul-14 06:59N 49°18' W 123°04'0 0.0
2018-Jul-14 06:29N 49°18' W 123°04'0 0.0
2018-Jul-14 05:59N 49°18' W 123°04'0 0.0
2018-Jul-14 05:29N 49°18' W 123°04'0 0.0
2018-Jul-14 04:59N 49°18' W 123°04'0 0.0
2018-Jul-14 04:29N 49°18' W 123°04'0 0.0
2018-Jul-14 03:59N 49°18' W 123°04'0 0.0
2018-Jul-14 03:23N 49°18' W 123°04'0 0.0
2018-Jul-14 02:59N 49°18' W 123°04'0 0.0
2018-Jul-14 02:29N 49°18' W 123°04'0 0.0
2018-Jul-14 01:59N 49°18' W 123°04'0 0.0
2018-Jul-14 01:29N 49°18' W 123°04'0 0.0
2018-Jul-14 00:59N 49°18' W 123°04'0 0.0
2018-Jul-14 00:26N 49°18' W 123°04'0 0.0
2018-Jul-13 23:56N 49°18' W 123°04'0 0.0
2018-Jul-13 23:29N 49°18' W 123°04'0 0.0
2018-Jul-13 22:59N 49°18' W 123°04'0 0.0
2018-Jul-13 22:28N 49°18' W 123°04'0 0.0
2018-Jul-13 21:58N 49°18' W 123°04'0 0.0
2018-Jul-13 21:29N 49°18' W 123°04'0 0.0
2018-Jul-13 20:59N 49°18' W 123°04'0 0.0
2018-Jul-13 20:29N 49°18' W 123°04'0 0.0
2018-Jul-13 19:58N 49°18' W 123°04'0 0.0
2018-Jul-13 19:29N 49°18' W 123°04'0 0.0
2018-Jul-13 18:59N 49°18' W 123°04'0 0.0
2018-Jul-13 18:29N 49°18' W 123°04'0 0.0
2018-Jul-13 17:58N 49°18' W 123°04'0 0.0
2018-Jul-13 17:29N 49°18' W 123°04'0 0.0
2018-Jul-13 16:59N 49°18' W 123°04'0 0.0
2018-Jul-13 16:29N 49°18' W 123°04'0 0.0
2018-Jul-13 15:59N 49°18' W 123°04'0 0.0
2018-Jul-13 15:25N 49°18' W 123°04'0 0.0
2018-Jul-13 14:59N 49°18' W 123°04'0 0.0
2018-Jul-13 14:29N 49°18' W 123°04'0 0.0
2018-Jul-13 13:29N 49°18' W 123°04'0 0.0
2018-Jul-13 12:59N 49°18' W 123°04'0 0.0
2018-Jul-13 12:28N 49°18' W 123°04'0 0.0
2018-Jul-13 11:59N 49°18' W 123°04'0 0.0
2018-Jul-13 11:29N 49°18' W 123°04'0 0.0
2018-Jul-13 10:59N 49°18' W 123°04'0 0.0
2018-Jul-13 10:28N 49°18' W 123°04'0 0.0
2018-Jul-13 09:55N 49°18' W 123°04'0 0.0
2018-Jul-13 09:28N 49°18' W 123°04'0 0.0
2018-Jul-13 08:58N 49°18' W 123°04'0 0.0
2018-Jul-13 08:28N 49°18' W 123°04'0 0.0
2018-Jul-13 07:59N 49°18' W 123°04'0 0.0
2018-Jul-13 07:28N 49°18' W 123°04'0 0.0
2018-Jul-13 06:59N 49°18' W 123°04'0 0.0
2018-Jul-13 06:29N 49°18' W 123°04'0 0.0
2018-Jul-13 05:59N 49°18' W 123°04'0 0.0
2018-Jul-13 05:28N 49°18' W 123°04'0 0.0
2018-Jul-13 04:58N 49°18' W 123°04'0 0.0
2018-Jul-13 04:28N 49°18' W 123°04'0 0.0
2018-Jul-13 03:58N 49°18' W 123°04'0 0.0
2018-Jul-13 03:25N 49°18' W 123°04'0 0.0
2018-Jul-13 02:58N 49°18' W 123°04'0 0.0
2018-Jul-13 02:28N 49°18' W 123°04'0 0.0
2018-Jul-13 01:58N 49°18' W 123°04'0 0.0
2018-Jul-13 01:28N 49°18' W 123°04'0 0.0
2018-Jul-13 00:59N 49°18' W 123°04'0 0.0
2018-Jul-13 00:26N 49°18' W 123°04'0 0.0
2018-Jul-12 23:58N 49°18' W 123°04'0 0.0
2018-Jul-12 23:25N 49°18' W 123°04'0 0.0
2018-Jul-12 22:58N 49°18' W 123°04'0 0.0
2018-Jul-12 22:28N 49°18' W 123°04'0 0.0
2018-Jul-12 21:58N 49°18' W 123°04'0 0.0
2018-Jul-12 21:28N 49°18' W 123°04'0 0.0
2018-Jul-12 20:58N 49°18' W 123°04'0 0.0
2018-Jul-12 20:28N 49°18' W 123°04'0 0.0
2018-Jul-12 19:58N 49°18' W 123°04'0 0.0
2018-Jul-12 19:28N 49°18' W 123°04'0 0.0
2018-Jul-12 18:58N 49°18' W 123°04'0 0.0
2018-Jul-12 18:28N 49°18' W 123°04'0 0.0
2018-Jul-12 17:58N 49°18' W 123°04'0 0.0
2018-Jul-12 17:28N 49°18' W 123°04'0 0.0
2018-Jul-12 16:58N 49°18' W 123°04'0 0.0
2018-Jul-12 16:13N 49°18' W 123°04'0 0.0
2018-Jul-12 15:55N 49°18' W 123°04'0 0.0
2018-Jul-12 15:28N 49°18' W 123°04'0 0.0
2018-Jul-12 14:58N 49°18' W 123°04'0 0.0
2018-Jul-12 14:28N 49°18' W 123°04'0 0.0
2018-Jul-12 13:58N 49°18' W 123°04'0 0.0
2018-Jul-12 13:28N 49°18' W 123°04'0 0.0
2018-Jul-12 12:55N 49°18' W 123°04'0 0.0
2018-Jul-12 12:28N 49°18' W 123°04'0 0.0
2018-Jul-12 11:58N 49°18' W 123°04'0 0.0
2018-Jul-12 11:28N 49°18' W 123°04'0 0.0
2018-Jul-12 10:58N 49°18' W 123°04'0 0.0
2018-Jul-12 10:28N 49°18' W 123°04'0 0.0
2018-Jul-12 09:58N 49°18' W 123°04'0 0.0
2018-Jul-12 09:28N 49°18' W 123°04'0 0.0
2018-Jul-12 08:58N 49°18' W 123°04'0 0.0
2018-Jul-12 08:28N 49°18' W 123°04'0 0.0
2018-Jul-12 07:58N 49°18' W 123°04'0 0.0
2018-Jul-12 07:28N 49°18' W 123°04'0 0.0
2018-Jul-12 06:58N 49°18' W 123°04'0 0.0
2018-Jul-12 06:28N 49°18' W 123°04'0 0.0
2018-Jul-12 05:58N 49°18' W 123°04'0 0.0
2018-Jul-12 05:28N 49°18' W 123°04'0 0.0
2018-Jul-12 04:58N 49°18' W 123°04'0 0.0
2018-Jul-12 04:28N 49°18' W 123°04'0 0.0
2018-Jul-12 03:58N 49°18' W 123°04'0 0.0
2018-Jul-12 03:28N 49°18' W 123°04'0 0.0
2018-Jul-12 02:58N 49°18' W 123°04'0 0.0
2018-Jul-12 02:28N 49°18' W 123°04'0 0.0
2018-Jul-12 01:58N 49°18' W 123°04'0 0.0
2018-Jul-12 01:28N 49°18' W 123°04'0 0.0
2018-Jul-12 00:58N 49°18' W 123°04'0 0.0
2018-Jul-12 00:28N 49°18' W 123°04'0 0.0
2018-Jul-11 23:58N 49°18' W 123°04'0 0.0
2018-Jul-11 23:28N 49°18' W 123°04'0 0.0
2018-Jul-11 22:58N 49°18' W 123°04'0 0.0
2018-Jul-11 22:28N 49°18' W 123°04'0 0.0
2018-Jul-11 21:58N 49°18' W 123°04'0 0.0
2018-Jul-11 21:28N 49°18' W 123°04'0 0.0
2018-Jul-11 20:58N 49°18' W 123°04'0 0.0
2018-Jul-11 20:28N 49°18' W 123°04'0 0.0
2018-Jul-11 19:58N 49°18' W 123°04'0 0.0
2018-Jul-11 19:28N 49°18' W 123°04'0 0.0
2018-Jul-11 18:58N 49°18' W 123°04'0 0.0
2018-Jul-11 18:28N 49°18' W 123°04'0 0.0
2018-Jul-11 17:58N 49°18' W 123°04'0 0.0
2018-Jul-11 17:28N 49°18' W 123°04'0 0.0
2018-Jul-11 16:58N 49°18' W 123°04'  

Dump ship's entire track history